sensor_id;sensor_type;location;lat;lon;timestamp;pressure;altitude;pressure_sealevel;temperature;humidity
77979;BME280;67169;50.268;8.694;2023-04-01T00:00:25;97888.22;;;8.35;84.59
77979;BME280;67169;50.268;8.694;2023-04-01T00:02:53;97880.88;;;8.39;84.13
77979;BME280;67169;50.268;8.694;2023-04-01T00:05:20;97883.56;;;8.39;84.54
77979;BME280;67169;50.268;8.694;2023-04-01T00:07:46;97883.03;;;8.32;84.75
77979;BME280;67169;50.268;8.694;2023-04-01T00:10:13;97880.19;;;8.35;84.25
77979;BME280;67169;50.268;8.694;2023-04-01T00:12:40;97870.97;;;8.25;84.61
77979;BME280;67169;50.268;8.694;2023-04-01T00:15:09;97877.69;;;8.32;84.40
77979;BME280;67169;50.268;8.694;2023-04-01T00:17:36;97886.09;;;8.26;85.13
77979;BME280;67169;50.268;8.694;2023-04-01T00:20:06;97869.94;;;8.12;85.80
77979;BME280;67169;50.268;8.694;2023-04-01T00:22:33;97884.53;;;8.22;85.23
77979;BME280;67169;50.268;8.694;2023-04-01T00:25:00;97870.41;;;8.04;86.21
77979;BME280;67169;50.268;8.694;2023-04-01T00:27:27;97883.50;;;8.08;86.54
77979;BME280;67169;50.268;8.694;2023-04-01T00:29:53;97882.59;;;8.09;86.42
77979;BME280;67169;50.268;8.694;2023-04-01T00:32:20;97887.50;;;8.01;87.43
77979;BME280;67169;50.268;8.694;2023-04-01T00:34:49;97889.59;;;7.96;87.49
77979;BME280;67169;50.268;8.694;2023-04-01T00:37:18;97883.50;;;8.08;85.88
77979;BME280;67169;50.268;8.694;2023-04-01T00:39:44;97887.31;;;8.04;86.23
77979;BME280;67169;50.268;8.694;2023-04-01T00:42:11;97893.91;;;7.99;86.75
77979;BME280;67169;50.268;8.694;2023-04-01T00:44:39;97878.88;;;7.96;87.03
77979;BME280;67169;50.268;8.694;2023-04-01T00:47:06;97878.88;;;7.96;86.74
77979;BME280;67169;50.268;8.694;2023-04-01T00:49:35;97876.50;;;7.92;87.08
77979;BME280;67169;50.268;8.694;2023-04-01T00:52:04;97880.59;;;7.97;86.73
77979;BME280;67169;50.268;8.694;2023-04-01T00:54:34;97873.72;;;7.93;86.35
77979;BME280;67169;50.268;8.694;2023-04-01T00:57:04;97879.84;;;7.95;86.44
77979;BME280;67169;50.268;8.694;2023-04-01T00:59:34;97878.59;;;8.01;85.67
77979;BME280;67169;50.268;8.694;2023-04-01T01:02:01;97876.78;;;8.01;85.76
77979;BME280;67169;50.268;8.694;2023-04-01T01:04:30;97865.91;;;8.04;85.55
77979;BME280;67169;50.268;8.694;2023-04-01T01:07:06;97857.31;;;7.99;84.71
77979;BME280;67169;50.268;8.694;2023-04-01T01:09:44;97874.56;;;8.09;84.82
77979;BME280;67169;50.268;8.694;2023-04-01T01:12:14;97869.28;;;8.08;84.96
77979;BME280;67169;50.268;8.694;2023-04-01T01:14:51;97878.66;;;8.15;83.92
77979;BME280;67169;50.268;8.694;2023-04-01T01:17:26;97833.41;;;7.80;83.94
77979;BME280;67169;50.268;8.694;2023-04-01T01:20:10;97877.56;;;8.03;85.02
77979;BME280;67169;50.268;8.694;2023-04-01T01:22:53;97882.16;;;8.01;84.98
77979;BME280;67169;50.268;8.694;2023-04-01T01:25:33;97864.97;;;8.05;84.66
77979;BME280;67169;50.268;8.694;2023-04-01T01:28:17;97865.34;;;7.99;85.62
77979;BME280;67169;50.268;8.694;2023-04-01T01:30:51;97857.66;;;7.93;84.87
77979;BME280;67169;50.268;8.694;2023-04-01T01:33:50;97865.91;;;8.04;84.64
77979;BME280;67169;50.268;8.694;2023-04-01T01:36:26;97867.84;;;8.02;84.71
77979;BME280;67169;50.268;8.694;2023-04-01T01:38:55;97873.88;;;8.06;84.14
77979;BME280;67169;50.268;8.694;2023-04-01T01:41:23;97876.53;;;8.06;84.52
77979;BME280;67169;50.268;8.694;2023-04-01T01:43:50;97881.97;;;8.04;84.37
77979;BME280;67169;50.268;8.694;2023-04-01T01:46:23;97862.66;;;7.99;84.54
77979;BME280;67169;50.268;8.694;2023-04-01T01:48:51;97868.59;;;8.04;84.36
77979;BME280;67169;50.268;8.694;2023-04-01T01:51:19;97875.41;;;8.10;84.08
77979;BME280;67169;50.268;8.694;2023-04-01T01:53:48;97878.25;;;8.07;84.29
77979;BME280;67169;50.268;8.694;2023-04-01T01:56:14;97883.56;;;7.93;85.35
77979;BME280;67169;50.268;8.694;2023-04-01T01:58:45;97872.91;;;7.91;85.82
77979;BME280;67169;50.268;8.694;2023-04-01T02:01:16;97866.38;;;7.81;85.61
77979;BME280;67169;50.268;8.694;2023-04-01T02:03:44;97879.06;;;7.93;85.05
77979;BME280;67169;50.268;8.694;2023-04-01T02:06:13;97875.34;;;7.96;84.50
77979;BME280;67169;50.268;8.694;2023-04-01T02:08:44;97868.69;;;7.87;85.62
77979;BME280;67169;50.268;8.694;2023-04-01T02:11:15;97876.16;;;7.82;85.91
77979;BME280;67169;50.268;8.694;2023-04-01T02:13:49;97859.63;;;7.90;84.72
77979;BME280;67169;50.268;8.694;2023-04-01T02:16:20;97832.13;;;7.72;85.12
77979;BME280;67169;50.268;8.694;2023-04-01T02:18:50;97871.47;;;7.85;85.14
77979;BME280;67169;50.268;8.694;2023-04-01T02:21:20;97799.78;;;7.45;85.16
77979;BME280;67169;50.268;8.694;2023-04-01T02:23:49;97867.44;;;7.78;85.39
77979;BME280;67169;50.268;8.694;2023-04-01T02:26:19;97867.16;;;7.83;85.38
77979;BME280;67169;50.268;8.694;2023-04-01T02:28:48;97864.94;;;7.75;86.45
77979;BME280;67169;50.268;8.694;2023-04-01T02:31:16;97874.22;;;7.84;84.93
77979;BME280;67169;50.268;8.694;2023-04-01T02:33:43;97839.53;;;7.67;85.36
77979;BME280;67169;50.268;8.694;2023-04-01T02:36:12;97863.34;;;7.87;84.67
77979;BME280;67169;50.268;8.694;2023-04-01T02:38:39;97871.72;;;7.81;85.37
77979;BME280;67169;50.268;8.694;2023-04-01T02:41:06;97860.09;;;7.82;85.44
77979;BME280;67169;50.268;8.694;2023-04-01T02:43:34;97870.69;;;7.83;84.98
77979;BME280;67169;50.268;8.694;2023-04-01T02:46:01;97861.53;;;7.88;85.19
77979;BME280;67169;50.268;8.694;2023-04-01T02:48:27;97870.63;;;7.85;84.89
77979;BME280;67169;50.268;8.694;2023-04-01T02:50:54;97870.53;;;7.87;84.92
77979;BME280;67169;50.268;8.694;2023-04-01T02:53:20;97868.53;;;7.90;84.37
77979;BME280;67169;50.268;8.694;2023-04-01T02:55:47;97876.16;;;7.82;85.37
77979;BME280;67169;50.268;8.694;2023-04-01T02:58:15;97867.69;;;7.74;86.03
77979;BME280;67169;50.268;8.694;2023-04-01T03:00:43;97878.81;;;7.82;85.42
77979;BME280;67169;50.268;8.694;2023-04-01T03:03:09;97862.16;;;7.77;85.77
77979;BME280;67169;50.268;8.694;2023-04-01T03:05:37;97864.59;;;7.81;85.36
77979;BME280;67169;50.268;8.694;2023-04-01T03:08:04;97874.00;;;7.73;86.14
77979;BME280;67169;50.268;8.694;2023-04-01T03:10:31;97867.50;;;7.77;85.73
77979;BME280;67169;50.268;8.694;2023-04-01T03:12:58;97873.03;;;7.74;85.94
77979;BME280;67169;50.268;8.694;2023-04-01T03:15:24;97864.81;;;7.77;85.23
77979;BME280;67169;50.268;8.694;2023-04-01T03:17:52;97865.38;;;7.68;86.60
77979;BME280;67169;50.268;8.694;2023-04-01T03:20:18;97866.69;;;7.60;87.53
77979;BME280;67169;50.268;8.694;2023-04-01T03:22:45;97869.41;;;7.59;86.74
77979;BME280;67169;50.268;8.694;2023-04-01T03:25:12;97883.47;;;7.63;87.07
77979;BME280;67169;50.268;8.694;2023-04-01T03:27:39;97871.25;;;7.58;87.24
77979;BME280;67169;50.268;8.694;2023-04-01T03:30:06;97880.38;;;7.54;88.21
77979;BME280;67169;50.268;8.694;2023-04-01T03:32:33;97874.59;;;7.62;87.14
77979;BME280;67169;50.268;8.694;2023-04-01T03:35:01;97872.19;;;7.57;87.66
77979;BME280;67169;50.268;8.694;2023-04-01T03:37:27;97878.63;;;7.53;87.81
77979;BME280;67169;50.268;8.694;2023-04-01T03:39:54;97877.19;;;7.48;88.47
77979;BME280;67169;50.268;8.694;2023-04-01T03:42:20;97880.63;;;7.50;87.88
77979;BME280;67169;50.268;8.694;2023-04-01T03:44:47;97863.13;;;7.44;88.40
77979;BME280;67169;50.268;8.694;2023-04-01T03:47:13;97873.50;;;7.50;88.28
77979;BME280;67169;50.268;8.694;2023-04-01T03:49:39;97858.81;;;7.42;88.05
77979;BME280;67169;50.268;8.694;2023-04-01T03:52:10;97876.50;;;7.44;88.43
77979;BME280;67169;50.268;8.694;2023-04-01T03:54:37;97877.88;;;7.51;88.37
77979;BME280;67169;50.268;8.694;2023-04-01T03:57:03;97872.69;;;7.48;88.20
77979;BME280;67169;50.268;8.694;2023-04-01T03:59:30;97875.47;;;7.47;88.64
77979;BME280;67169;50.268;8.694;2023-04-01T04:01:57;97874.59;;;7.46;88.63
77979;BME280;67169;50.268;8.694;2023-04-01T04:04:23;97862.50;;;7.39;88.95
77979;BME280;67169;50.268;8.694;2023-04-01T04:06:51;97878.47;;;7.41;89.25
77979;BME280;67169;50.268;8.694;2023-04-01T04:09:19;97872.69;;;7.48;88.29
77979;BME280;67169;50.268;8.694;2023-04-01T04:11:45;97867.53;;;7.45;88.48
77979;BME280;67169;50.268;8.694;2023-04-01T04:14:12;97877.34;;;7.45;88.54
77979;BME280;67169;50.268;8.694;2023-04-01T04:16:38;97867.69;;;7.42;88.90
77979;BME280;67169;50.268;8.694;2023-04-01T04:19:05;97804.00;;;7.01;88.52
77979;BME280;67169;50.268;8.694;2023-04-01T04:21:31;97881.84;;;7.44;88.60
77979;BME280;67169;50.268;8.694;2023-04-01T04:23:58;97873.72;;;7.46;88.54
77979;BME280;67169;50.268;8.694;2023-04-01T04:26:26;97851.13;;;7.35;88.43
77979;BME280;67169;50.268;8.694;2023-04-01T04:28:53;97872.88;;;7.45;88.79
77979;BME280;67169;50.268;8.694;2023-04-01T04:31:21;97873.81;;;7.44;88.81
77979;BME280;67169;50.268;8.694;2023-04-01T04:33:48;97876.56;;;7.43;88.91
77979;BME280;67169;50.268;8.694;2023-04-01T04:36:15;97876.50;;;7.44;88.96
77979;BME280;67169;50.268;8.694;2023-04-01T04:38:41;97872.34;;;7.38;89.63
77979;BME280;67169;50.268;8.694;2023-04-01T04:41:09;97869.94;;;7.34;89.75
77979;BME280;67169;50.268;8.694;2023-04-01T04:43:38;97851.56;;;7.28;89.94
77979;BME280;67169;50.268;8.694;2023-04-01T04:46:06;97870.97;;;7.31;90.51
77979;BME280;67169;50.268;8.694;2023-04-01T04:48:32;97870.78;;;7.34;89.95
77979;BME280;67169;50.268;8.694;2023-04-01T04:50:58;97873.56;;;7.33;90.23
77979;BME280;67169;50.268;8.694;2023-04-01T04:53:26;97877.44;;;7.43;89.82
77979;BME280;67169;50.268;8.694;2023-04-01T04:55:52;97859.94;;;7.37;89.59
77979;BME280;67169;50.268;8.694;2023-04-01T04:58:19;97872.34;;;7.38;90.29
77979;BME280;67169;50.268;8.694;2023-04-01T05:00:47;97859.41;;;7.31;90.25
77979;BME280;67169;50.268;8.694;2023-04-01T05:03:13;97874.84;;;7.42;89.93
77979;BME280;67169;50.268;8.694;2023-04-01T05:05:48;97877.63;;;7.40;89.97
77979;BME280;67169;50.268;8.694;2023-04-01T05:08:15;97870.63;;;7.37;90.33
77979;BME280;67169;50.268;8.694;2023-04-01T05:10:41;97822.47;;;7.06;90.30
77979;BME280;67169;50.268;8.694;2023-04-01T05:13:08;97842.25;;;7.19;90.07
77979;BME280;67169;50.268;8.694;2023-04-01T05:15:35;97875.72;;;7.42;89.62
77979;BME280;67169;50.268;8.694;2023-04-01T05:18:03;97870.28;;;7.44;89.55
77979;BME280;67169;50.268;8.694;2023-04-01T05:20:30;97862.09;;;7.47;89.16
77979;BME280;67169;50.268;8.694;2023-04-01T05:22:57;97809.28;;;7.03;89.98
77979;BME280;67169;50.268;8.694;2023-04-01T05:25:24;97872.50;;;7.35;90.04
77979;BME280;67169;50.268;8.694;2023-04-01T05:27:50;97870.28;;;7.44;89.64
77979;BME280;67169;50.268;8.694;2023-04-01T05:30:17;97867.16;;;7.35;90.69
77979;BME280;67169;50.268;8.694;2023-04-01T05:32:44;97868.38;;;7.46;89.38
77979;BME280;67169;50.268;8.694;2023-04-01T05:35:12;97861.47;;;7.42;90.07
77979;BME280;67169;50.268;8.694;2023-04-01T05:37:38;97861.47;;;7.42;90.02
77979;BME280;67169;50.268;8.694;2023-04-01T05:40:06;97863.88;;;7.46;89.42
77979;BME280;67169;50.268;8.694;2023-04-01T05:42:33;97864.84;;;7.45;89.65
77979;BME280;67169;50.268;8.694;2023-04-01T05:45:00;97869.41;;;7.43;89.99
77979;BME280;67169;50.268;8.694;2023-04-01T05:47:27;97863.13;;;7.44;89.92
77979;BME280;67169;50.268;8.694;2023-04-01T05:49:53;97865.25;;;7.53;89.20
77979;BME280;67169;50.268;8.694;2023-04-01T05:52:22;97866.56;;;7.46;90.01
77979;BME280;67169;50.268;8.694;2023-04-01T05:54:48;97871.06;;;7.46;90.04
77979;BME280;67169;50.268;8.694;2023-04-01T05:57:14;97861.03;;;7.49;89.94
77979;BME280;67169;50.268;8.694;2023-04-01T05:59:41;97865.63;;;7.47;90.26
77979;BME280;67169;50.268;8.694;2023-04-01T06:02:08;97869.06;;;7.49;89.82
77979;BME280;67169;50.268;8.694;2023-04-01T06:04:38;97831.19;;;7.25;90.48
77979;BME280;67169;50.268;8.694;2023-04-01T06:07:11;97854.75;;;7.34;90.42
77979;BME280;67169;50.268;8.694;2023-04-01T06:09:39;97869.94;;;7.50;90.13
77979;BME280;67169;50.268;8.694;2023-04-01T06:12:22;97860.97;;;7.51;90.04
77979;BME280;67169;50.268;8.694;2023-04-01T06:14:59;97874.34;;;7.51;89.76
77979;BME280;67169;50.268;8.694;2023-04-01T06:17:40;97860.28;;;7.47;89.75
77979;BME280;67169;50.268;8.694;2023-04-01T06:20:12;97875.28;;;7.50;89.75
77979;BME280;67169;50.268;8.694;2023-04-01T06:23:01;97871.69;;;7.51;89.41
77979;BME280;67169;50.268;8.694;2023-04-01T06:25:50;97869.06;;;7.49;89.68
77979;BME280;67169;50.268;8.694;2023-04-01T06:28:46;97865.47;;;7.50;89.92
77979;BME280;67169;50.268;8.694;2023-04-01T06:31:24;97870.81;;;7.50;89.74
77979;BME280;67169;50.268;8.694;2023-04-01T06:34:01;97857.44;;;7.50;89.10
77979;BME280;67169;50.268;8.694;2023-04-01T06:36:52;97874.06;;;7.55;89.29
77979;BME280;67169;50.268;8.694;2023-04-01T06:39:28;97874.78;;;7.59;88.90
77979;BME280;67169;50.268;8.694;2023-04-01T06:42:09;97885.13;;;7.65;88.21
77979;BME280;67169;50.268;8.694;2023-04-01T06:44:44;97876.16;;;7.66;88.90
77979;BME280;67169;50.268;8.694;2023-04-01T06:47:26;97880.38;;;7.70;88.36
77979;BME280;67169;50.268;8.694;2023-04-01T06:50:00;97880.47;;;7.69;88.94
77979;BME280;67169;50.268;8.694;2023-04-01T06:52:37;97877.53;;;7.73;88.75
77979;BME280;67169;50.268;8.694;2023-04-01T06:55:24;97877.19;;;7.79;88.14
77979;BME280;67169;50.268;8.694;2023-04-01T06:57:55;97879.97;;;7.78;88.94
77979;BME280;67169;50.268;8.694;2023-04-01T07:00:28;97877.00;;;7.82;89.07
77979;BME280;67169;50.268;8.694;2023-04-01T07:03:02;97878.66;;;7.85;88.68
77979;BME280;67169;50.268;8.694;2023-04-01T07:05:32;97886.69;;;7.85;88.80
77979;BME280;67169;50.268;8.694;2023-04-01T07:08:02;97876.84;;;7.85;88.38
77979;BME280;67169;50.268;8.694;2023-04-01T07:10:34;97868.13;;;7.82;87.79
77979;BME280;67169;50.268;8.694;2023-04-01T07:13:06;97884.75;;;7.87;87.89
77979;BME280;67169;50.268;8.694;2023-04-01T07:15:39;97892.03;;;7.85;88.23
77979;BME280;67169;50.268;8.694;2023-04-01T07:18:12;97896.59;;;7.83;88.26
77979;BME280;67169;50.268;8.694;2023-04-01T07:20:41;97887.03;;;7.79;89.60
77979;BME280;67169;50.268;8.694;2023-04-01T07:23:15;97871.66;;;7.67;89.71
77979;BME280;67169;50.268;8.694;2023-04-01T07:25:44;97894.88;;;7.82;89.04
77979;BME280;67169;50.268;8.694;2023-04-01T07:28:15;97895.75;;;7.82;89.25
77979;BME280;67169;50.268;8.694;2023-04-01T07:30:52;97894.44;;;7.90;89.23
77979;BME280;67169;50.268;8.694;2023-04-01T07:33:30;97870.13;;;7.78;89.21
77979;BME280;67169;50.268;8.694;2023-04-01T07:36:03;97898.75;;;7.92;89.56
77979;BME280;67169;50.268;8.694;2023-04-01T07:38:40;97873.13;;;7.88;88.80
77979;BME280;67169;50.268;8.694;2023-04-01T07:41:18;97899.56;;;8.08;88.94
77979;BME280;67169;50.268;8.694;2023-04-01T07:43:59;97893.69;;;8.18;89.06
77979;BME280;67169;50.268;8.694;2023-04-01T07:46:43;97904.91;;;8.24;88.87
77979;BME280;67169;50.268;8.694;2023-04-01T07:49:16;97914.25;;;8.33;89.11
77979;BME280;67169;50.268;8.694;2023-04-01T07:51:49;97902.91;;;8.28;89.02
77979;BME280;67169;50.268;8.694;2023-04-01T07:54:24;97906.97;;;8.35;88.35
77979;BME280;67169;50.268;8.694;2023-04-01T07:56:57;97908.88;;;8.33;88.36
77979;BME280;67169;50.268;8.694;2023-04-01T07:59:34;97909.41;;;8.40;89.41
77979;BME280;67169;50.268;8.694;2023-04-01T08:02:12;97913.72;;;8.42;88.34
77979;BME280;67169;50.268;8.694;2023-04-01T08:04:51;97913.03;;;8.39;88.98
77979;BME280;67169;50.268;8.694;2023-04-01T08:07:23;97920.72;;;8.45;89.40
77979;BME280;67169;50.268;8.694;2023-04-01T08:09:55;97911.63;;;8.47;88.54
77979;BME280;67169;50.268;8.694;2023-04-01T08:12:32;97923.09;;;8.49;88.52
77979;BME280;67169;50.268;8.694;2023-04-01T08:15:12;97925.22;;;8.44;88.62
77979;BME280;67169;50.268;8.694;2023-04-01T08:17:55;97924.06;;;8.48;88.80
77979;BME280;67169;50.268;8.694;2023-04-01T08:20:29;97926.47;;;8.53;89.12
77979;BME280;67169;50.268;8.694;2023-04-01T08:23:00;97930.97;;;8.52;88.71
77979;BME280;67169;50.268;8.694;2023-04-01T08:25:32;97930.41;;;8.47;88.50
77979;BME280;67169;50.268;8.694;2023-04-01T08:28:03;97936.78;;;8.45;88.27
77979;BME280;67169;50.268;8.694;2023-04-01T08:30:40;97932.03;;;8.50;88.94
77979;BME280;67169;50.268;8.694;2023-04-01T08:33:12;97936.94;;;8.58;88.80
77979;BME280;67169;50.268;8.694;2023-04-01T08:35:45;97936.66;;;8.62;89.17
77979;BME280;67169;50.268;8.694;2023-04-01T08:38:18;97932.16;;;8.63;88.17
77979;BME280;67169;50.268;8.694;2023-04-01T08:41:07;97885.22;;;8.41;88.97
77979;BME280;67169;50.268;8.694;2023-04-01T08:43:53;97927.78;;;8.76;88.14
77979;BME280;67169;50.268;8.694;2023-04-01T08:46:41;97932.09;;;8.78;87.78
77979;BME280;67169;50.268;8.694;2023-04-01T08:49:27;97922.25;;;8.79;87.68
77979;BME280;67169;50.268;8.694;2023-04-01T08:52:25;97926.44;;;8.83;87.35
77979;BME280;67169;50.268;8.694;2023-04-01T08:55:22;97931.28;;;8.92;87.89
77979;BME280;67169;50.268;8.694;2023-04-01T08:58:06;97926.59;;;8.96;87.58
77979;BME280;67169;50.268;8.694;2023-04-01T09:00:42;97930.91;;;8.98;87.87
77979;BME280;67169;50.268;8.694;2023-04-01T09:03:22;97930.13;;;8.96;87.66
77979;BME280;67169;50.268;8.694;2023-04-01T09:09:14;97938.44;;;8.92;87.88
77979;BME280;67169;50.268;8.694;2023-04-01T09:12:14;97944.25;;;8.84;88.25
77979;BME280;67169;50.268;8.694;2023-04-01T09:15:15;97940.53;;;8.87;88.45
77979;BME280;67169;50.268;8.694;2023-04-01T09:21:04;97953.69;;;8.91;88.87
77979;BME280;67169;50.268;8.694;2023-04-01T09:26:48;97941.16;;;9.06;87.95
77979;BME280;67169;50.268;8.694;2023-04-01T09:29:34;97947.94;;;9.12;87.85
77979;BME280;67169;50.268;8.694;2023-04-01T09:32:17;97948.81;;;9.12;87.85
77979;BME280;67169;50.268;8.694;2023-04-01T09:34:54;97944.13;;;9.16;88.39
77979;BME280;67169;50.268;8.694;2023-04-01T09:37:34;97946.72;;;9.17;88.14
77979;BME280;67169;50.268;8.694;2023-04-01T09:40:18;97946.81;;;9.44;88.77
77979;BME280;67169;50.268;8.694;2023-04-01T09:43:00;97945.94;;;9.58;87.13
77979;BME280;67169;50.268;8.694;2023-04-01T09:46:02;97955.72;;;9.59;87.14
77979;BME280;67169;50.268;8.694;2023-04-01T09:51:40;97941.06;;;9.50;86.26
77979;BME280;67169;50.268;8.694;2023-04-01T09:54:24;97953.63;;;9.64;86.04
77979;BME280;67169;50.268;8.694;2023-04-01T09:57:32;97949.78;;;9.68;86.16
77979;BME280;67169;50.268;8.694;2023-04-01T10:00:15;97946.91;;;9.71;87.03
77979;BME280;67169;50.268;8.694;2023-04-01T10:12:38;97972.50;;;9.63;88.08
77979;BME280;67169;50.268;8.694;2023-04-01T10:18:40;97965.97;;;9.67;88.73
77979;BME280;67169;50.268;8.694;2023-04-01T10:21:31;97969.91;;;9.61;88.23
77979;BME280;67169;50.268;8.694;2023-04-01T10:27:21;97970.88;;;9.60;88.23
77979;BME280;67169;50.268;8.694;2023-04-01T10:33:30;97968.59;;;9.54;89.04
77979;BME280;67169;50.268;8.694;2023-04-01T10:36:33;97960.78;;;9.49;88.73
77979;BME280;67169;50.268;8.694;2023-04-01T10:39:20;97971.75;;;9.46;89.58
77979;BME280;67169;50.268;8.694;2023-04-01T10:42:18;97969.34;;;9.42;89.17
77979;BME280;67169;50.268;8.694;2023-04-01T10:45:22;97974.81;;;9.40;89.06
77979;BME280;67169;50.268;8.694;2023-04-01T10:48:23;97971.06;;;9.43;89.68
77979;BME280;67169;50.268;8.694;2023-04-01T10:51:21;97977.88;;;9.48;90.02
77979;BME280;67169;50.268;8.694;2023-04-01T10:54:21;97971.63;;;9.48;89.71
77979;BME280;67169;50.268;8.694;2023-04-01T10:56:59;97956.41;;;9.34;90.47
77979;BME280;67169;50.268;8.694;2023-04-01T10:59:45;97972.97;;;9.41;90.96
77979;BME280;67169;50.268;8.694;2023-04-01T11:05:59;97980.16;;;9.40;90.67
77979;BME280;67169;50.268;8.694;2023-04-01T11:09:19;97976.72;;;9.38;90.44
77979;BME280;67169;50.268;8.694;2023-04-01T11:15:17;97975.66;;;9.41;91.45
77979;BME280;67169;50.268;8.694;2023-04-01T11:20:56;97984.56;;;9.41;91.37
77979;BME280;67169;50.268;8.694;2023-04-01T11:23:45;97980.72;;;9.45;91.17
77979;BME280;67169;50.268;8.694;2023-04-01T11:26:38;97990.13;;;9.52;91.56
77979;BME280;67169;50.268;8.694;2023-04-01T11:32:20;97988.41;;;9.66;91.23
77979;BME280;67169;50.268;8.694;2023-04-01T11:35:06;97984.88;;;9.65;90.11
77979;BME280;67169;50.268;8.694;2023-04-01T11:37:44;97987.06;;;9.59;90.47
77979;BME280;67169;50.268;8.694;2023-04-01T11:40:20;97967.13;;;9.48;90.55
77979;BME280;67169;50.268;8.694;2023-04-01T11:42:56;97989.56;;;9.62;90.94
77979;BME280;67169;50.268;8.694;2023-04-01T11:45:35;97990.13;;;9.67;91.35
77979;BME280;67169;50.268;8.694;2023-04-01T11:48:25;97994.44;;;9.69;91.12
77979;BME280;67169;50.268;8.694;2023-04-01T11:51:15;98006.63;;;9.75;90.55
77979;BME280;67169;50.268;8.694;2023-04-01T11:53:57;97990.53;;;9.75;91.18
77979;BME280;67169;50.268;8.694;2023-04-01T11:56:49;98008.94;;;9.81;91.60
77979;BME280;67169;50.268;8.694;2023-04-01T11:59:42;98005.47;;;9.79;91.31
77979;BME280;67169;50.268;8.694;2023-04-01T12:02:15;98018.69;;;9.82;91.25
77979;BME280;67169;50.268;8.694;2023-04-01T12:04:54;97998.94;;;9.69;91.43
77979;BME280;67169;50.268;8.694;2023-04-01T12:07:38;98018.59;;;9.84;91.15
77979;BME280;67169;50.268;8.694;2023-04-01T12:10:17;98015.03;;;9.83;90.54
77979;BME280;67169;50.268;8.694;2023-04-01T12:12:49;98022.72;;;9.89;90.79
77979;BME280;67169;50.268;8.694;2023-04-01T12:15:27;98009.66;;;9.97;90.93
77979;BME280;67169;50.268;8.694;2023-04-01T12:18:00;98024.03;;;10.11;90.63
77979;BME280;67169;50.268;8.694;2023-04-01T12:20:40;98022.44;;;10.08;89.74
77979;BME280;67169;50.268;8.694;2023-04-01T12:23:20;98017.06;;;10.08;89.66
77979;BME280;67169;50.268;8.694;2023-04-01T12:26:15;98020.09;;;10.16;90.65
77979;BME280;67169;50.268;8.694;2023-04-01T12:28:59;98019.44;;;10.13;89.79
77979;BME280;67169;50.268;8.694;2023-04-01T12:31:35;98017.50;;;10.15;88.93
77979;BME280;67169;50.268;8.694;2023-04-01T12:37:08;98025.34;;;10.32;89.69
77979;BME280;67169;50.268;8.694;2023-04-01T12:39:55;98022.22;;;10.53;89.57
77979;BME280;67169;50.268;8.694;2023-04-01T12:42:43;98021.91;;;10.72;88.49
77979;BME280;67169;50.268;8.694;2023-04-01T12:45:28;98018.34;;;10.71;88.19
77979;BME280;67169;50.268;8.694;2023-04-01T12:48:17;98026.81;;;10.65;87.85
77979;BME280;67169;50.268;8.694;2023-04-01T12:53:55;98032.25;;;10.51;87.66
77979;BME280;67169;50.268;8.694;2023-04-01T12:56:34;97996.00;;;10.15;87.72
77979;BME280;67169;50.268;8.694;2023-04-01T12:59:23;98027.38;;;10.29;88.25
77979;BME280;67169;50.268;8.694;2023-04-01T13:02:01;98040.34;;;10.22;88.84
77979;BME280;67169;50.268;8.694;2023-04-01T13:05:05;98035.56;;;10.13;89.48
77979;BME280;67169;50.268;8.694;2023-04-01T13:07:58;98039.13;;;9.99;89.57
77979;BME280;67169;50.268;8.694;2023-04-01T13:10:37;98028.09;;;9.89;90.27
77979;BME280;67169;50.268;8.694;2023-04-01T13:16:08;98032.09;;;10.11;90.25
77979;BME280;67169;50.268;8.694;2023-04-01T13:18:43;98040.22;;;10.38;90.27
77979;BME280;67169;50.268;8.694;2023-04-01T13:21:20;98040.03;;;10.41;89.02
77979;BME280;67169;50.268;8.694;2023-04-01T13:23:57;98000.97;;;10.35;89.85
77979;BME280;67169;50.268;8.694;2023-04-01T13:26:30;98043.59;;;10.68;88.77
77979;BME280;67169;50.268;8.694;2023-04-01T13:29:06;98042.16;;;10.77;89.60
77979;BME280;67169;50.268;8.694;2023-04-01T13:31:47;98049.84;;;10.69;89.00
77979;BME280;67169;50.268;8.694;2023-04-01T13:34:33;98050.50;;;10.73;88.74
77979;BME280;67169;50.268;8.694;2023-04-01T13:37:14;98044.97;;;10.88;88.39
77979;BME280;67169;50.268;8.694;2023-04-01T13:39:57;98052.19;;;11.01;88.60
77979;BME280;67169;50.268;8.694;2023-04-01T13:42:29;98045.97;;;11.00;87.86
77979;BME280;67169;50.268;8.694;2023-04-01T13:45:01;98052.78;;;11.06;88.77
77979;BME280;67169;50.268;8.694;2023-04-01T13:47:45;98049.72;;;10.98;88.34
77979;BME280;67169;50.268;8.694;2023-04-01T13:50:45;98058.94;;;10.81;88.30
77979;BME280;67169;50.268;8.694;2023-04-01T13:56:16;98063.91;;;10.60;89.04
77979;BME280;67169;50.268;8.694;2023-04-01T13:59:03;98048.09;;;10.41;89.33
77979;BME280;67169;50.268;8.694;2023-04-01T14:01:41;98062.78;;;10.50;90.11
77979;BME280;67169;50.268;8.694;2023-04-01T14:04:32;98062.19;;;10.44;89.96
77979;BME280;67169;50.268;8.694;2023-04-01T14:07:11;98060.22;;;10.34;90.68
77979;BME280;67169;50.268;8.694;2023-04-01T14:10:07;98071.50;;;10.39;90.95
77979;BME280;67169;50.268;8.694;2023-04-01T14:12:42;98069.72;;;10.39;90.47
77979;BME280;67169;50.268;8.694;2023-04-01T14:15:36;98046.13;;;10.30;90.09
77979;BME280;67169;50.268;8.694;2023-04-01T14:18:25;98066.13;;;10.53;90.43
77979;BME280;67169;50.268;8.694;2023-04-01T14:21:13;98063.72;;;11.03;88.93
77979;BME280;67169;50.268;8.694;2023-04-01T14:24:03;98060.91;;;11.44;86.78
77979;BME280;67169;50.268;8.694;2023-04-01T14:26:55;98059.69;;;11.88;85.46
77979;BME280;67169;50.268;8.694;2023-04-01T14:29:30;98069.78;;;11.97;82.78
77979;BME280;67169;50.268;8.694;2023-04-01T14:32:06;98071.81;;;12.19;80.43
77979;BME280;67169;50.268;8.694;2023-04-01T14:34:54;98074.91;;;12.75;80.62
77979;BME280;67169;50.268;8.694;2023-04-01T14:37:38;98067.59;;;12.65;79.14
77979;BME280;67169;50.268;8.694;2023-04-01T14:40:27;98071.06;;;12.17;81.13
77979;BME280;67169;50.268;8.694;2023-04-01T14:43:14;98079.13;;;11.79;81.33
77979;BME280;67169;50.268;8.694;2023-04-01T14:45:59;98080.63;;;11.45;84.57
77979;BME280;67169;50.268;8.694;2023-04-01T14:48:33;98074.34;;;11.31;86.33
77979;BME280;67169;50.268;8.694;2023-04-01T14:51:10;98059.88;;;11.07;86.96